sensor_id;sensor_type;location;lat;lon;timestamp;temperature;humidity
51613;DHT22;37694;51.748;14.326;2023-03-01T00:02:19;22.10;39.70
51613;DHT22;37694;51.748;14.326;2023-03-01T00:04:45;22.10;39.80
51613;DHT22;37694;51.748;14.326;2023-03-01T00:07:12;22.10;39.70
51613;DHT22;37694;51.748;14.326;2023-03-01T00:09:38;22.10;39.70
51613;DHT22;37694;51.748;14.326;2023-03-01T00:12:05;22.10;39.70
51613;DHT22;37694;51.748;14.326;2023-03-01T00:14:31;22.10;39.70
51613;DHT22;37694;51.748;14.326;2023-03-01T00:16:57;22.10;39.70
51613;DHT22;37694;51.748;14.326;2023-03-01T00:19:22;22.10;39.50
51613;DHT22;37694;51.748;14.326;2023-03-01T00:21:48;22.10;39.60
51613;DHT22;37694;51.748;14.326;2023-03-01T00:24:14;22.10;39.50
51613;DHT22;37694;51.748;14.326;2023-03-01T00:26:40;22.10;39.50
51613;DHT22;37694;51.748;14.326;2023-03-01T00:29:06;22.10;39.50
51613;DHT22;37694;51.748;14.326;2023-03-01T00:31:33;22.00;39.50
51613;DHT22;37694;51.748;14.326;2023-03-01T00:34:01;22.00;39.50
51613;DHT22;37694;51.748;14.326;2023-03-01T00:36:29;22.00;39.50
51613;DHT22;37694;51.748;14.326;2023-03-01T00:38:56;22.00;39.50
51613;DHT22;37694;51.748;14.326;2023-03-01T00:41:22;22.00;39.50
51613;DHT22;37694;51.748;14.326;2023-03-01T00:43:49;22.00;39.50
51613;DHT22;37694;51.748;14.326;2023-03-01T00:46:18;21.90;39.50
51613;DHT22;37694;51.748;14.326;2023-03-01T00:48:44;21.90;39.50
51613;DHT22;37694;51.748;14.326;2023-03-01T00:51:14;21.90;39.50
51613;DHT22;37694;51.748;14.326;2023-03-01T00:53:40;21.90;39.50
51613;DHT22;37694;51.748;14.326;2023-03-01T00:56:08;21.90;39.50
51613;DHT22;37694;51.748;14.326;2023-03-01T00:58:34;21.80;39.50
51613;DHT22;37694;51.748;14.326;2023-03-01T01:01:00;21.80;39.50
51613;DHT22;37694;51.748;14.326;2023-03-01T01:03:26;21.80;39.60
51613;DHT22;37694;51.748;14.326;2023-03-01T01:05:52;21.80;39.60
51613;DHT22;37694;51.748;14.326;2023-03-01T01:08:19;21.70;39.50
51613;DHT22;37694;51.748;14.326;2023-03-01T01:10:46;21.70;39.40
51613;DHT22;37694;51.748;14.326;2023-03-01T01:13:13;21.70;39.40
51613;DHT22;37694;51.748;14.326;2023-03-01T01:15:39;21.70;39.50
51613;DHT22;37694;51.748;14.326;2023-03-01T01:18:05;21.70;39.50
51613;DHT22;37694;51.748;14.326;2023-03-01T01:20:31;21.70;39.50
51613;DHT22;37694;51.748;14.326;2023-03-01T01:22:57;21.70;39.40
51613;DHT22;37694;51.748;14.326;2023-03-01T01:25:23;21.70;39.40
51613;DHT22;37694;51.748;14.326;2023-03-01T01:27:50;21.70;39.30
51613;DHT22;37694;51.748;14.326;2023-03-01T01:30:16;21.70;39.30
51613;DHT22;37694;51.748;14.326;2023-03-01T01:32:42;21.70;39.30
51613;DHT22;37694;51.748;14.326;2023-03-01T01:35:08;21.70;39.30
51613;DHT22;37694;51.748;14.326;2023-03-01T01:37:33;21.70;39.30
51613;DHT22;37694;51.748;14.326;2023-03-01T01:40:00;21.70;39.30
51613;DHT22;37694;51.748;14.326;2023-03-01T01:42:27;21.70;40.00
51613;DHT22;37694;51.748;14.326;2023-03-01T01:45:31;21.70;39.20
51613;DHT22;37694;51.748;14.326;2023-03-01T01:47:58;21.70;39.20
51613;DHT22;37694;51.748;14.326;2023-03-01T01:50:25;21.60;39.30
51613;DHT22;37694;51.748;14.326;2023-03-01T01:52:53;21.50;39.40
51613;DHT22;37694;51.748;14.326;2023-03-01T01:55:24;21.50;39.30
51613;DHT22;37694;51.748;14.326;2023-03-01T01:57:58;21.50;39.30
51613;DHT22;37694;51.748;14.326;2023-03-01T02:00:27;21.50;39.40
51613;DHT22;37694;51.748;14.326;2023-03-01T02:02:59;21.50;39.40
51613;DHT22;37694;51.748;14.326;2023-03-01T02:05:38;21.40;39.40
51613;DHT22;37694;51.748;14.326;2023-03-01T02:08:05;21.50;39.40
51613;DHT22;37694;51.748;14.326;2023-03-01T02:10:33;21.40;39.30
51613;DHT22;37694;51.748;14.326;2023-03-01T02:13:00;21.40;39.30
51613;DHT22;37694;51.748;14.326;2023-03-01T02:15:26;21.40;39.30
51613;DHT22;37694;51.748;14.326;2023-03-01T02:17:54;21.40;39.30
51613;DHT22;37694;51.748;14.326;2023-03-01T02:20:26;21.40;39.30
51613;DHT22;37694;51.748;14.326;2023-03-01T02:22:55;21.30;39.30
51613;DHT22;37694;51.748;14.326;2023-03-01T02:30:51;21.40;39.10
51613;DHT22;37694;51.748;14.326;2023-03-01T02:33:38;21.30;39.20
51613;DHT22;37694;51.748;14.326;2023-03-01T02:36:08;21.40;39.30
51613;DHT22;37694;51.748;14.326;2023-03-01T02:38:35;21.40;39.20
51613;DHT22;37694;51.748;14.326;2023-03-01T02:41:02;21.40;39.20
51613;DHT22;37694;51.748;14.326;2023-03-01T02:43:31;21.30;39.10
51613;DHT22;37694;51.748;14.326;2023-03-01T02:46:03;21.40;39.20
51613;DHT22;37694;51.748;14.326;2023-03-01T02:48:40;21.30;39.10
51613;DHT22;37694;51.748;14.326;2023-03-01T02:56:30;21.30;39.00
51613;DHT22;37694;51.748;14.326;2023-03-01T02:58:56;21.30;39.10
51613;DHT22;37694;51.748;14.326;2023-03-01T03:01:26;21.30;39.10
51613;DHT22;37694;51.748;14.326;2023-03-01T03:04:09;21.30;39.00
51613;DHT22;37694;51.748;14.326;2023-03-01T03:06:36;21.20;39.00
51613;DHT22;37694;51.748;14.326;2023-03-01T03:09:03;21.20;39.10
51613;DHT22;37694;51.748;14.326;2023-03-01T03:11:29;21.20;39.10
51613;DHT22;37694;51.748;14.326;2023-03-01T03:13:56;21.10;39.10
51613;DHT22;37694;51.748;14.326;2023-03-01T03:16:22;21.10;39.10
51613;DHT22;37694;51.748;14.326;2023-03-01T03:18:48;21.10;39.20
51613;DHT22;37694;51.748;14.326;2023-03-01T03:21:14;21.10;39.20
51613;DHT22;37694;51.748;14.326;2023-03-01T03:23:40;21.10;39.20
51613;DHT22;37694;51.748;14.326;2023-03-01T03:26:06;21.10;39.20
51613;DHT22;37694;51.748;14.326;2023-03-01T03:28:33;21.10;39.20
51613;DHT22;37694;51.748;14.326;2023-03-01T03:30:59;21.00;39.10
51613;DHT22;37694;51.748;14.326;2023-03-01T03:33:29;21.00;39.20
51613;DHT22;37694;51.748;14.326;2023-03-01T03:35:55;21.00;39.30
51613;DHT22;37694;51.748;14.326;2023-03-01T03:38:21;21.00;39.10
51613;DHT22;37694;51.748;14.326;2023-03-01T03:40:55;21.00;39.10
51613;DHT22;37694;51.748;14.326;2023-03-01T03:43:28;21.00;39.00
51613;DHT22;37694;51.748;14.326;2023-03-01T03:45:54;21.00;39.00
51613;DHT22;37694;51.748;14.326;2023-03-01T03:48:20;21.00;39.00
51613;DHT22;37694;51.748;14.326;2023-03-01T03:50:51;21.00;39.00
51613;DHT22;37694;51.748;14.326;2023-03-01T03:53:17;21.10;39.00
51613;DHT22;37694;51.748;14.326;2023-03-01T03:55:43;21.00;38.90
51613;DHT22;37694;51.748;14.326;2023-03-01T03:58:10;21.10;39.00
51613;DHT22;37694;51.748;14.326;2023-03-01T04:00:38;21.00;39.00
51613;DHT22;37694;51.748;14.326;2023-03-01T04:03:04;21.00;39.00
51613;DHT22;37694;51.748;14.326;2023-03-01T04:05:30;21.00;38.90
51613;DHT22;37694;51.748;14.326;2023-03-01T04:07:56;21.00;38.90
51613;DHT22;37694;51.748;14.326;2023-03-01T04:10:40;21.00;38.90
51613;DHT22;37694;51.748;14.326;2023-03-01T04:13:08;20.90;38.90
51613;DHT22;37694;51.748;14.326;2023-03-01T04:15:34;20.90;38.90
51613;DHT22;37694;51.748;14.326;2023-03-01T04:18:00;20.90;38.90
51613;DHT22;37694;51.748;14.326;2023-03-01T04:20:30;20.90;39.00
51613;DHT22;37694;51.748;14.326;2023-03-01T04:22:59;20.90;38.90
51613;DHT22;37694;51.748;14.326;2023-03-01T04:28:10;20.90;39.00
51613;DHT22;37694;51.748;14.326;2023-03-01T04:30:37;20.90;38.90
51613;DHT22;37694;51.748;14.326;2023-03-01T04:33:05;20.90;38.90
51613;DHT22;37694;51.748;14.326;2023-03-01T04:35:32;21.00;38.90
51613;DHT22;37694;51.748;14.326;2023-03-01T04:37:58;21.00;38.90
51613;DHT22;37694;51.748;14.326;2023-03-01T04:40:24;21.00;38.80
51613;DHT22;37694;51.748;14.326;2023-03-01T04:42:49;21.10;38.90
51613;DHT22;37694;51.748;14.326;2023-03-01T04:45:15;21.20;38.90
51613;DHT22;37694;51.748;14.326;2023-03-01T04:47:42;21.30;38.70
51613;DHT22;37694;51.748;14.326;2023-03-01T04:50:11;21.40;38.70
51613;DHT22;37694;51.748;14.326;2023-03-01T04:52:37;21.40;38.50
51613;DHT22;37694;51.748;14.326;2023-03-01T04:55:04;21.50;38.70
51613;DHT22;37694;51.748;14.326;2023-03-01T04:57:30;21.60;38.30
51613;DHT22;37694;51.748;14.326;2023-03-01T04:59:56;21.70;38.40
51613;DHT22;37694;51.748;14.326;2023-03-01T05:02:21;21.80;38.20
51613;DHT22;37694;51.748;14.326;2023-03-01T05:04:47;21.80;38.10
51613;DHT22;37694;51.748;14.326;2023-03-01T05:07:13;21.90;38.20
51613;DHT22;37694;51.748;14.326;2023-03-01T05:09:45;22.00;38.00
51613;DHT22;37694;51.748;14.326;2023-03-01T05:12:12;22.10;37.90
51613;DHT22;37694;51.748;14.326;2023-03-01T05:14:37;22.20;37.90
51613;DHT22;37694;51.748;14.326;2023-03-01T05:17:04;22.30;37.80
51613;DHT22;37694;51.748;14.326;2023-03-01T05:19:31;22.40;37.70
51613;DHT22;37694;51.748;14.326;2023-03-01T05:21:57;22.40;37.40
51613;DHT22;37694;51.748;14.326;2023-03-01T05:24:33;22.50;37.40
51613;DHT22;37694;51.748;14.326;2023-03-01T05:27:00;22.60;37.40
51613;DHT22;37694;51.748;14.326;2023-03-01T05:29:28;22.60;37.30
51613;DHT22;37694;51.748;14.326;2023-03-01T05:32:01;22.70;37.20
51613;DHT22;37694;51.748;14.326;2023-03-01T05:34:35;22.80;37.90
51613;DHT22;37694;51.748;14.326;2023-03-01T05:37:02;22.90;37.10
51613;DHT22;37694;51.748;14.326;2023-03-01T05:39:29;22.90;37.10
51613;DHT22;37694;51.748;14.326;2023-03-01T05:41:56;23.00;37.10
51613;DHT22;37694;51.748;14.326;2023-03-01T05:44:23;23.00;37.00
51613;DHT22;37694;51.748;14.326;2023-03-01T05:46:49;23.10;36.90
51613;DHT22;37694;51.748;14.326;2023-03-01T05:49:16;23.10;36.90
51613;DHT22;37694;51.748;14.326;2023-03-01T05:51:42;23.10;36.90
51613;DHT22;37694;51.748;14.326;2023-03-01T05:54:11;23.30;36.90
51613;DHT22;37694;51.748;14.326;2023-03-01T05:56:37;23.30;36.80
51613;DHT22;37694;51.748;14.326;2023-03-01T05:59:04;23.30;36.80
51613;DHT22;37694;51.748;14.326;2023-03-01T06:01:34;23.40;36.80
51613;DHT22;37694;51.748;14.326;2023-03-01T06:03:59;23.40;36.80
51613;DHT22;37694;51.748;14.326;2023-03-01T06:06:26;23.40;36.80
51613;DHT22;37694;51.748;14.326;2023-03-01T06:08:52;23.50;36.70
51613;DHT22;37694;51.748;14.326;2023-03-01T06:11:18;23.60;36.80
51613;DHT22;37694;51.748;14.326;2023-03-01T06:13:45;23.60;36.90
51613;DHT22;37694;51.748;14.326;2023-03-01T06:16:11;23.60;37.10
51613;DHT22;37694;51.748;14.326;2023-03-01T06:18:38;23.60;37.80
51613;DHT22;37694;51.748;14.326;2023-03-01T06:21:05;23.70;37.80
51613;DHT22;37694;51.748;14.326;2023-03-01T06:23:32;23.70;37.70
51613;DHT22;37694;51.748;14.326;2023-03-01T06:25:57;23.70;37.80
51613;DHT22;37694;51.748;14.326;2023-03-01T06:28:23;23.70;37.90
51613;DHT22;37694;51.748;14.326;2023-03-01T06:30:50;23.70;38.00
51613;DHT22;37694;51.748;14.326;2023-03-01T06:33:17;23.70;38.30
51613;DHT22;37694;51.748;14.326;2023-03-01T06:35:45;23.70;38.70
51613;DHT22;37694;51.748;14.326;2023-03-01T06:38:12;23.70;38.50
51613;DHT22;37694;51.748;14.326;2023-03-01T06:40:40;23.70;38.40
51613;DHT22;37694;51.748;14.326;2023-03-01T06:43:06;23.70;38.30
51613;DHT22;37694;51.748;14.326;2023-03-01T06:45:33;23.80;38.70
51613;DHT22;37694;51.748;14.326;2023-03-01T06:48:03;23.80;38.70
51613;DHT22;37694;51.748;14.326;2023-03-01T06:50:29;23.80;38.70
51613;DHT22;37694;51.748;14.326;2023-03-01T06:52:57;23.70;38.70
51613;DHT22;37694;51.748;14.326;2023-03-01T06:55:23;23.70;39.00
51613;DHT22;37694;51.748;14.326;2023-03-01T06:57:53;23.70;38.90
51613;DHT22;37694;51.748;14.326;2023-03-01T07:00:19;23.70;38.80
51613;DHT22;37694;51.748;14.326;2023-03-01T07:02:45;23.70;39.00
51613;DHT22;37694;51.748;14.326;2023-03-01T07:05:11;23.60;38.80
51613;DHT22;37694;51.748;14.326;2023-03-01T07:07:36;23.70;39.00
51613;DHT22;37694;51.748;14.326;2023-03-01T07:10:02;23.60;38.70
51613;DHT22;37694;51.748;14.326;2023-03-01T07:12:28;23.70;39.10
51613;DHT22;37694;51.748;14.326;2023-03-01T07:14:54;23.60;38.80
51613;DHT22;37694;51.748;14.326;2023-03-01T07:17:19;23.60;39.00
51613;DHT22;37694;51.748;14.326;2023-03-01T07:19:45;23.60;40.00
51613;DHT22;37694;51.748;14.326;2023-03-01T07:22:11;23.60;39.30
51613;DHT22;37694;51.748;14.326;2023-03-01T07:24:36;23.60;39.00
51613;DHT22;37694;51.748;14.326;2023-03-01T07:27:02;23.60;38.90
51613;DHT22;37694;51.748;14.326;2023-03-01T07:29:28;23.60;39.00
51613;DHT22;37694;51.748;14.326;2023-03-01T07:31:54;23.60;38.80
51613;DHT22;37694;51.748;14.326;2023-03-01T07:34:20;23.50;38.80
51613;DHT22;37694;51.748;14.326;2023-03-01T07:36:45;23.50;38.70
51613;DHT22;37694;51.748;14.326;2023-03-01T07:39:11;23.60;39.00
51613;DHT22;37694;51.748;14.326;2023-03-01T07:41:37;23.60;39.00
51613;DHT22;37694;51.748;14.326;2023-03-01T07:44:03;23.50;38.70
51613;DHT22;37694;51.748;14.326;2023-03-01T07:46:29;23.50;38.70
51613;DHT22;37694;51.748;14.326;2023-03-01T07:48:55;23.50;38.70
51613;DHT22;37694;51.748;14.326;2023-03-01T07:51:20;23.50;38.60
51613;DHT22;37694;51.748;14.326;2023-03-01T07:53:47;23.50;38.70
51613;DHT22;37694;51.748;14.326;2023-03-01T07:56:14;23.50;38.60
51613;DHT22;37694;51.748;14.326;2023-03-01T07:58:42;23.50;38.70
51613;DHT22;37694;51.748;14.326;2023-03-01T08:01:10;23.50;38.80
51613;DHT22;37694;51.748;14.326;2023-03-01T08:03:37;23.50;38.80
51613;DHT22;37694;51.748;14.326;2023-03-01T08:06:04;23.50;38.80
51613;DHT22;37694;51.748;14.326;2023-03-01T08:08:31;23.50;38.70
51613;DHT22;37694;51.748;14.326;2023-03-01T08:10:58;23.50;38.70
51613;DHT22;37694;51.748;14.326;2023-03-01T08:13:24;23.50;38.70
51613;DHT22;37694;51.748;14.326;2023-03-01T08:15:50;23.50;38.70
51613;DHT22;37694;51.748;14.326;2023-03-01T08:18:17;23.60;38.70
51613;DHT22;37694;51.748;14.326;2023-03-01T08:20:42;23.50;38.70
51613;DHT22;37694;51.748;14.326;2023-03-01T08:23:08;23.60;38.70
51613;DHT22;37694;51.748;14.326;2023-03-01T08:25:34;23.60;38.60
51613;DHT22;37694;51.748;14.326;2023-03-01T08:27:59;23.60;38.60
51613;DHT22;37694;51.748;14.326;2023-03-01T08:30:25;23.60;38.60
51613;DHT22;37694;51.748;14.326;2023-03-01T08:32:52;23.60;38.60
51613;DHT22;37694;51.748;14.326;2023-03-01T08:35:18;23.60;38.60
51613;DHT22;37694;51.748;14.326;2023-03-01T08:37:44;23.60;38.60
51613;DHT22;37694;51.748;14.326;2023-03-01T08:40:10;23.60;38.60
51613;DHT22;37694;51.748;14.326;2023-03-01T08:42:39;23.60;38.60
51613;DHT22;37694;51.748;14.326;2023-03-01T08:45:06;23.60;38.60
51613;DHT22;37694;51.748;14.326;2023-03-01T08:47:32;23.70;38.60
51613;DHT22;37694;51.748;14.326;2023-03-01T08:49:59;23.60;38.50
51613;DHT22;37694;51.748;14.326;2023-03-01T08:52:25;23.70;38.50
51613;DHT22;37694;51.748;14.326;2023-03-01T08:54:51;23.70;38.50
51613;DHT22;37694;51.748;14.326;2023-03-01T08:57:17;23.70;38.50
51613;DHT22;37694;51.748;14.326;2023-03-01T08:59:43;23.70;38.40
51613;DHT22;37694;51.748;14.326;2023-03-01T09:02:14;23.70;38.40
51613;DHT22;37694;51.748;14.326;2023-03-01T09:04:41;23.80;38.30
51613;DHT22;37694;51.748;14.326;2023-03-01T09:07:07;23.70;38.20
51613;DHT22;37694;51.748;14.326;2023-03-01T09:09:33;23.80;38.30
51613;DHT22;37694;51.748;14.326;2023-03-01T09:11:59;23.80;38.10
51613;DHT22;37694;51.748;14.326;2023-03-01T09:14:24;23.80;38.20
51613;DHT22;37694;51.748;14.326;2023-03-01T09:16:50;23.80;38.10
51613;DHT22;37694;51.748;14.326;2023-03-01T09:19:16;23.80;38.10
51613;DHT22;37694;51.748;14.326;2023-03-01T09:21:42;23.90;38.10
51613;DHT22;37694;51.748;14.326;2023-03-01T09:24:18;23.90;38.10
51613;DHT22;37694;51.748;14.326;2023-03-01T09:26:44;23.90;38.00
51613;DHT22;37694;51.748;14.326;2023-03-01T09:29:12;23.90;38.00
51613;DHT22;37694;51.748;14.326;2023-03-01T09:31:39;23.90;37.80
51613;DHT22;37694;51.748;14.326;2023-03-01T09:34:05;24.10;37.80
51613;DHT22;37694;51.748;14.326;2023-03-01T09:36:30;24.10;37.50
51613;DHT22;37694;51.748;14.326;2023-03-01T09:38:57;24.20;37.40
51613;DHT22;37694;51.748;14.326;2023-03-01T09:44:45;24.40;37.10
51613;DHT22;37694;51.748;14.326;2023-03-01T09:46:51;24.40;36.90
51613;DHT22;37694;51.748;14.326;2023-03-01T09:49:20;24.50;37.00
51613;DHT22;37694;51.748;14.326;2023-03-01T09:54:24;24.50;36.70
51613;DHT22;37694;51.748;14.326;2023-03-01T10:05:02;24.40;36.70
51613;DHT22;37694;51.748;14.326;2023-03-01T10:07:48;24.40;36.90
51613;DHT22;37694;51.748;14.326;2023-03-01T10:10:37;24.40;36.70
51613;DHT22;37694;51.748;14.326;2023-03-01T10:15:59;24.40;36.70
51613;DHT22;37694;51.748;14.326;2023-03-01T10:18:30;24.50;36.80
51613;DHT22;37694;51.748;14.326;2023-03-01T10:21:02;24.40;36.70
51613;DHT22;37694;51.748;14.326;2023-03-01T10:23:31;24.50;36.70
51613;DHT22;37694;51.748;14.326;2023-03-01T10:28:29;24.50;36.60
51613;DHT22;37694;51.748;14.326;2023-03-01T10:30:57;24.60;36.60
51613;DHT22;37694;51.748;14.326;2023-03-01T10:33:29;24.60;36.60
51613;DHT22;37694;51.748;14.326;2023-03-01T10:35:56;24.60;36.50
51613;DHT22;37694;51.748;14.326;2023-03-01T10:38:22;24.70;36.50
51613;DHT22;37694;51.748;14.326;2023-03-01T10:40:58;24.70;36.40
51613;DHT22;37694;51.748;14.326;2023-03-01T10:49:23;24.70;36.20
51613;DHT22;37694;51.748;14.326;2023-03-01T10:51:52;24.80;36.10
51613;DHT22;37694;51.748;14.326;2023-03-01T10:54:32;24.70;36.20
51613;DHT22;37694;51.748;14.326;2023-03-01T10:57:00;24.80;37.00
51613;DHT22;37694;51.748;14.326;2023-03-01T10:59:35;24.80;36.10
51613;DHT22;37694;51.748;14.326;2023-03-01T11:04:35;24.90;36.00
51613;DHT22;37694;51.748;14.326;2023-03-01T11:07:02;24.90;36.00
51613;DHT22;37694;51.748;14.326;2023-03-01T11:09:33;24.90;35.80
51613;DHT22;37694;51.748;14.326;2023-03-01T11:12:08;24.90;35.70
51613;DHT22;37694;51.748;14.326;2023-03-01T11:14:46;24.90;35.70
51613;DHT22;37694;51.748;14.326;2023-03-01T11:17:23;25.00;35.60
51613;DHT22;37694;51.748;14.326;2023-03-01T11:22:32;25.00;35.40
51613;DHT22;37694;51.748;14.326;2023-03-01T11:24:59;25.00;35.60
51613;DHT22;37694;51.748;14.326;2023-03-01T11:27:32;25.00;35.50
51613;DHT22;37694;51.748;14.326;2023-03-01T11:30:07;25.10;35.50
51613;DHT22;37694;51.748;14.326;2023-03-01T11:32:50;25.10;35.50
51613;DHT22;37694;51.748;14.326;2023-03-01T11:35:22;25.10;35.40
51613;DHT22;37694;51.748;14.326;2023-03-01T11:38:23;25.10;35.30
51613;DHT22;37694;51.748;14.326;2023-03-01T11:52:03;25.20;35.00
51613;DHT22;37694;51.748;14.326;2023-03-01T12:02:56;25.30;34.40
51613;DHT22;37694;51.748;14.326;2023-03-01T12:16:39;25.30;34.60
51613;DHT22;37694;51.748;14.326;2023-03-01T12:36:19;25.30;34.20
51613;DHT22;37694;51.748;14.326;2023-03-01T12:38:37;25.30;34.20
51613;DHT22;37694;51.748;14.326;2023-03-01T12:49:28;25.30;34.20
51613;DHT22;37694;51.748;14.326;2023-03-01T12:52:21;25.30;34.00
51613;DHT22;37694;51.748;14.326;2023-03-01T12:54:50;25.30;33.60
51613;DHT22;37694;51.748;14.326;2023-03-01T12:57:38;25.30;34.00
51613;DHT22;37694;51.748;14.326;2023-03-01T13:00:22;25.40;33.80
51613;DHT22;37694;51.748;14.326;2023-03-01T13:11:22;25.30;33.80
51613;DHT22;37694;51.748;14.326;2023-03-01T13:13:49;25.30;33.40
51613;DHT22;37694;51.748;14.326;2023-03-01T13:19:10;25.30;33.80
51613;DHT22;37694;51.748;14.326;2023-03-01T13:21:37;25.30;33.70
51613;DHT22;37694;51.748;14.326;2023-03-01T13:24:03;25.30;34.10
51613;DHT22;37694;51.748;14.326;2023-03-01T13:26:29;25.30;34.00
51613;DHT22;37694;51.748;14.326;2023-03-01T13:28:58;25.30;34.10
51613;DHT22;37694;51.748;14.326;2023-03-01T13:33:55;25.20;34.00
51613;DHT22;37694;51.748;14.326;2023-03-01T13:39:28;25.20;34.00
51613;DHT22;37694;51.748;14.326;2023-03-01T13:41:57;25.20;33.80
51613;DHT22;37694;51.748;14.326;2023-03-01T13:49:47;25.10;34.00
51613;DHT22;37694;51.748;14.326;2023-03-01T13:55:01;25.10;34.00
51613;DHT22;37694;51.748;14.326;2023-03-01T13:57:37;25.00;34.00
51613;DHT22;37694;51.748;14.326;2023-03-01T14:00:05;25.00;33.90
51613;DHT22;37694;51.748;14.326;2023-03-01T14:02:31;24.90;33.90
51613;DHT22;37694;51.748;14.326;2023-03-01T14:05:00;24.90;34.00
51613;DHT22;37694;51.748;14.326;2023-03-01T14:07:27;24.90;34.00
51613;DHT22;37694;51.748;14.326;2023-03-01T14:10:05;24.90;34.10
51613;DHT22;37694;51.748;14.326;2023-03-01T14:13:17;24.90;34.10
51613;DHT22;37694;51.748;14.326;2023-03-01T14:16:03;24.80;34.10
51613;DHT22;37694;51.748;14.326;2023-03-01T14:21:01;24.70;34.30
51613;DHT22;37694;51.748;14.326;2023-03-01T14:23:32;24.70;34.60
51613;DHT22;37694;51.748;14.326;2023-03-01T14:26:00;24.70;34.60
51613;DHT22;37694;51.748;14.326;2023-03-01T14:28:29;24.70;34.50
51613;DHT22;37694;51.748;14.326;2023-03-01T14:30:59;24.70;34.40
51613;DHT22;37694;51.748;14.326;2023-03-01T14:33:32;24.60;34.30
51613;DHT22;37694;51.748;14.326;2023-03-01T14:36:09;24.60;34.30
51613;DHT22;37694;51.748;14.326;2023-03-01T14:38:42;24.60;34.50
51613;DHT22;37694;51.748;14.326;2023-03-01T14:41:24;24.60;34.30
51613;DHT22;37694;51.748;14.326;2023-03-01T14:44:00;24.50;34.30
51613;DHT22;37694;51.748;14.326;2023-03-01T14:46:35;24.50;34.40
51613;DHT22;37694;51.748;14.326;2023-03-01T14:49:11;24.50;34.50
51613;DHT22;37694;51.748;14.326;2023-03-01T14:51:38;24.40;34.50
51613;DHT22;37694;51.748;14.326;2023-03-01T14:54:29;24.40;34.30
51613;DHT22;37694;51.748;14.326;2023-03-01T14:57:01;24.30;34.50
51613;DHT22;37694;51.748;14.326;2023-03-01T14:59:27;24.30;34.70
51613;DHT22;37694;51.748;14.326;2023-03-01T15:01:56;24.30;34.80
51613;DHT22;37694;51.748;14.326;2023-03-01T15:04:23;24.30;34.70
51613;DHT22;37694;51.748;14.326;2023-03-01T15:06:54;24.30;34.60
51613;DHT22;37694;51.748;14.326;2023-03-01T15:09:21;24.30;34.70
51613;DHT22;37694;51.748;14.326;2023-03-01T15:11:47;24.30;34.70
51613;DHT22;37694;51.748;14.326;2023-03-01T15:14:40;24.20;34.80
51613;DHT22;37694;51.748;14.326;2023-03-01T15:17:21;24.20;34.60
51613;DHT22;37694;51.748;14.326;2023-03-01T15:19:48;24.10;34.60
51613;DHT22;37694;51.748;14.326;2023-03-01T15:22:17;24.10;35.00
51613;DHT22;37694;51.748;14.326;2023-03-01T15:24:48;24.10;34.90
51613;DHT22;37694;51.748;14.326;2023-03-01T15:27:17;24.10;35.00
51613;DHT22;37694;51.748;14.326;2023-03-01T15:29:56;24.00;34.80
51613;DHT22;37694;51.748;14.326;2023-03-01T15:32:30;24.00;34.90
51613;DHT22;37694;51.748;14.326;2023-03-01T15:35:00;24.00;34.80
51613;DHT22;37694;51.748;14.326;2023-03-01T15:40:20;23.90;34.50
51613;DHT22;37694;51.748;14.326;2023-03-01T15:42:46;23.90;35.10
51613;DHT22;37694;51.748;14.326;2023-03-01T15:47:50;23.80;35.10
51613;DHT22;37694;51.748;14.326;2023-03-01T15:52:56;23.80;35.20
51613;DHT22;37694;51.748;14.326;2023-03-01T15:55:29;23.80;35.80
51613;DHT22;37694;51.748;14.326;2023-03-01T16:00:32;23.80;35.60
51613;DHT22;37694;51.748;14.326;2023-03-01T16:02:58;23.80;35.30
51613;DHT22;37694;51.748;14.326;2023-03-01T16:05:27;23.70;35.50
51613;DHT22;37694;51.748;14.326;2023-03-01T16:07:54;23.80;35.40
51613;DHT22;37694;51.748;14.326;2023-03-01T16:10:21;23.80;35.20
51613;DHT22;37694;51.748;14.326;2023-03-01T16:12:46;23.70;35.40
51613;DHT22;37694;51.748;14.326;2023-03-01T16:15:30;23.80;35.60
51613;DHT22;37694;51.748;14.326;2023-03-01T16:17:56;23.80;35.40
51613;DHT22;37694;51.748;14.326;2023-03-01T16:20:24;23.70;35.40
51613;DHT22;37694;51.748;14.326;2023-03-01T16:22:50;23.70;35.40
51613;DHT22;37694;51.748;14.326;2023-03-01T16:25:18;23.70;35.60
51613;DHT22;37694;51.748;14.326;2023-03-01T16:27:46;23.80;35.70
51613;DHT22;37694;51.748;14.326;2023-03-01T16:30:14;23.70;35.50
51613;DHT22;37694;51.748;14.326;2023-03-01T16:32:43;23.70;35.80
51613;DHT22;37694;51.748;14.326;2023-03-01T16:35:10;23.70;35.60
51613;DHT22;37694;51.748;14.326;2023-03-01T16:37:36;23.70;35.60
51613;DHT22;37694;51.748;14.326;2023-03-01T16:40:04;23.70;35.80
51613;DHT22;37694;51.748;14.326;2023-03-01T16:42:34;23.70;36.10
51613;DHT22;37694;51.748;14.326;2023-03-01T16:45:00;23.70;36.60
51613;DHT22;37694;51.748;14.326;2023-03-01T16:47:27;23.60;36.60
51613;DHT22;37694;51.748;14.326;2023-03-01T16:49:53;23.70;36.50
51613;DHT22;37694;51.748;14.326;2023-03-01T16:52:20;23.70;36.50
51613;DHT22;37694;51.748;14.326;2023-03-01T16:54:45;23.60;36.70
51613;DHT22;37694;51.748;14.326;2023-03-01T16:57:11;23.60;36.50
51613;DHT22;37694;51.748;14.326;2023-03-01T16:59:37;23.60;36.80
51613;DHT22;37694;51.748;14.326;2023-03-01T17:02:03;23.60;36.70
51613;DHT22;37694;51.748;14.326;2023-03-01T17:04:31;23.60;36.70
51613;DHT22;37694;51.748;14.326;2023-03-01T17:06:57;23.60;36.80
51613;DHT22;37694;51.748;14.326;2023-03-01T17:09:22;23.60;37.80
51613;DHT22;37694;51.748;14.326;2023-03-01T17:11:49;23.60;37.10
51613;DHT22;37694;51.748;14.326;2023-03-01T17:14:15;23.60;37.00
51613;DHT22;37694;51.748;14.326;2023-03-01T17:16:42;23.60;37.10
51613;DHT22;37694;51.748;14.326;2023-03-01T17:19:09;23.60;37.30
51613;DHT22;37694;51.748;14.326;2023-03-01T17:21:35;23.60;37.10
51613;DHT22;37694;51.748;14.326;2023-03-01T17:24:01;23.60;37.30
51613;DHT22;37694;51.748;14.326;2023-03-01T17:26:26;23.60;37.30
51613;DHT22;37694;51.748;14.326;2023-03-01T17:28:54;23.60;37.30
51613;DHT22;37694;51.748;14.326;2023-03-01T17:31:21;23.60;37.40
51613;DHT22;37694;51.748;14.326;2023-03-01T17:33:47;23.60;37.50
51613;DHT22;37694;51.748;14.326;2023-03-01T17:36:15;23.60;37.60
51613;DHT22;37694;51.748;14.326;2023-03-01T17:38:40;23.60;37.60
51613;DHT22;37694;51.748;14.326;2023-03-01T17:41:06;23.50;37.50
51613;DHT22;37694;51.748;14.326;2023-03-01T17:43:32;23.60;37.50